createdAt,value
2022-09-06T00:00:34.681Z,100.00
2022-09-06T00:03:03.992Z,100.00
2022-09-06T00:05:33.872Z,100.00
2022-09-06T00:08:04.024Z,100.00
2022-09-06T00:10:33.518Z,100.00
2022-09-06T00:13:05.795Z,100.00
2022-09-06T00:15:35.366Z,100.00
2022-09-06T00:18:06.363Z,100.00
2022-09-06T00:20:36.834Z,100.00
2022-09-06T00:23:07.928Z,100.00
2022-09-06T00:25:37.391Z,100.00
2022-09-06T00:28:07.934Z,100.00
2022-09-06T00:30:36.641Z,100.00
2022-09-06T00:33:05.590Z,100.00
2022-09-06T00:35:34.463Z,100.00
2022-09-06T00:38:03.585Z,100.00
2022-09-06T00:40:35.884Z,100.00
2022-09-06T00:43:04.726Z,100.00
2022-09-06T00:45:35.405Z,100.00
2022-09-06T00:48:06.539Z,100.00
2022-09-06T00:50:35.495Z,100.00
2022-09-06T00:53:04.667Z,100.00
2022-09-06T00:55:34.071Z,100.00
2022-09-06T00:58:02.985Z,100.00
2022-09-06T01:00:31.779Z,100.00
2022-09-06T01:03:01.957Z,100.00
2022-09-06T01:05:43.681Z,100.00
2022-09-06T01:08:21.677Z,100.00
2022-09-06T01:11:22.758Z,100.00
2022-09-06T01:14:01.685Z,100.00
2022-09-06T01:16:37.764Z,100.00
2022-09-06T01:19:28.962Z,100.00
2022-09-06T01:22:08.697Z,100.00
2022-09-06T01:25:01.163Z,100.00
2022-09-06T01:27:55.957Z,100.00
2022-09-06T01:30:26.101Z,100.00
2022-09-06T01:33:01.757Z,100.00
2022-09-06T01:35:37.423Z,100.00
2022-09-06T01:38:08.504Z,100.00
2022-09-06T01:40:37.306Z,100.00
2022-09-06T01:43:12.043Z,100.00
2022-09-06T01:45:51.001Z,100.00
2022-09-06T01:48:32.380Z,100.00
2022-09-06T01:51:16.112Z,100.00
2022-09-06T01:54:02.327Z,100.00
2022-09-06T01:56:43.944Z,100.00
2022-09-06T01:59:37.818Z,100.00
2022-09-06T02:02:12.234Z,100.00
2022-09-06T02:04:46.445Z,100.00
2022-09-06T02:07:21.710Z,100.00
2022-09-06T02:09:55.161Z,100.00
2022-09-06T02:12:28.540Z,100.00
2022-09-06T02:15:02.999Z,100.00
2022-09-06T02:17:36.203Z,100.00
2022-09-06T02:20:09.397Z,100.00
2022-09-06T02:22:40.303Z,100.00
2022-09-06T02:25:12.907Z,100.00
2022-09-06T02:27:41.889Z,100.00
2022-09-06T02:30:13.241Z,100.00
2022-09-06T02:32:46.042Z,100.00
2022-09-06T02:35:17.717Z,100.00
2022-09-06T02:37:46.916Z,100.00
2022-09-06T02:40:15.683Z,100.00
2022-09-06T02:42:44.393Z,100.00
2022-09-06T02:45:14.631Z,100.00
2022-09-06T02:47:43.433Z,100.00
2022-09-06T02:50:13.503Z,100.00
2022-09-06T02:52:42.441Z,100.00
2022-09-06T02:55:11.479Z,100.00
2022-09-06T02:57:40.303Z,100.00
2022-09-06T03:00:10.183Z,100.00
2022-09-06T03:02:40.385Z,100.00
2022-09-06T03:05:10.228Z,100.00
2022-09-06T03:07:39.087Z,100.00
2022-09-06T03:10:08.736Z,100.00
2022-09-06T03:12:37.605Z,100.00
2022-09-06T03:15:07.444Z,100.00
2022-09-06T03:17:36.149Z,100.00
2022-09-06T03:20:07.722Z,100.00
2022-09-06T03:22:36.437Z,100.00
2022-09-06T03:25:05.563Z,100.00
2022-09-06T03:27:34.587Z,100.00
2022-09-06T03:30:03.313Z,100.00
2022-09-06T03:32:32.315Z,100.00
2022-09-06T03:35:01.194Z,100.00
2022-09-06T03:37:31.392Z,100.00
2022-09-06T03:40:00.404Z,100.00
2022-09-06T03:42:29.470Z,100.00
2022-09-06T03:44:58.387Z,100.00
2022-09-06T03:47:27.219Z,100.00
2022-09-06T03:49:56.040Z,100.00
2022-09-06T03:52:24.863Z,100.00
2022-09-06T03:54:55.070Z,100.00
2022-09-06T03:57:23.912Z,100.00
2022-09-06T03:59:52.648Z,100.00
2022-09-06T04:02:21.712Z,100.00
2022-09-06T04:04:50.782Z,100.00
2022-09-06T04:07:19.469Z,100.00
2022-09-06T04:09:48.234Z,100.00
2022-09-06T04:12:18.550Z,100.00
2022-09-06T04:14:47.369Z,100.00
2022-09-06T04:17:16.413Z,100.00
2022-09-06T04:19:45.210Z,100.00
2022-09-06T04:22:13.939Z,100.00
2022-09-06T04:24:42.813Z,100.00
2022-09-06T04:27:11.555Z,100.00
2022-09-06T04:29:41.828Z,100.00
2022-09-06T04:32:10.593Z,100.00
2022-09-06T04:34:39.318Z,100.00
2022-09-06T04:37:08.126Z,100.00
2022-09-06T04:39:36.999Z,100.00
2022-09-06T04:42:06.293Z,100.00
2022-09-06T04:44:34.976Z,100.00
2022-09-06T04:47:12.979Z,100.00
2022-09-06T04:49:41.831Z,100.00
2022-09-06T04:52:11.494Z,100.00
2022-09-06T04:54:40.568Z,100.00
2022-09-06T04:57:09.490Z,100.00
2022-09-06T04:59:38.692Z,100.00
2022-09-06T05:02:09.081Z,100.00
2022-09-06T05:04:37.963Z,100.00
2022-09-06T05:07:09.202Z,100.00
2022-09-06T05:09:38.216Z,100.00
2022-09-06T05:12:08.100Z,100.00
2022-09-06T05:14:37.081Z,100.00
2022-09-06T05:17:05.989Z,100.00
2022-09-06T05:19:36.259Z,100.00
2022-09-06T05:22:05.063Z,100.00
2022-09-06T05:24:33.936Z,100.00
2022-09-06T05:27:04.571Z,100.00
2022-09-06T05:29:33.292Z,100.00
2022-09-06T05:32:02.289Z,100.00
2022-09-06T05:34:31.140Z,100.00
2022-09-06T05:37:01.368Z,100.00
2022-09-06T05:39:30.213Z,100.00
2022-09-06T05:41:59.167Z,100.00
2022-09-06T05:44:28.014Z,100.00
2022-09-06T05:46:56.907Z,100.00
2022-09-06T05:49:25.830Z,100.00
2022-09-06T05:51:54.610Z,100.00
2022-09-06T05:54:25.530Z,100.00
2022-09-06T05:56:54.278Z,100.00
2022-09-06T05:59:23.229Z,100.00
2022-09-06T06:01:54.218Z,100.00
2022-09-06T06:04:23.733Z,100.00
2022-09-06T06:06:52.974Z,100.00
2022-09-06T06:09:21.792Z,100.00
2022-09-06T06:11:52.147Z,100.00
2022-09-06T06:14:21.085Z,100.00
2022-09-06T06:16:49.962Z,100.00
2022-09-06T06:19:18.910Z,100.00
2022-09-06T06:21:47.917Z,100.00
2022-09-06T06:24:17.012Z,100.00
2022-09-06T06:26:46.011Z,100.00
2022-09-06T06:29:16.309Z,100.00
2022-09-06T06:31:45.409Z,100.00
2022-09-06T06:34:14.348Z,100.00
2022-09-06T06:36:44.511Z,100.00
2022-09-06T06:39:13.434Z,100.00
2022-09-06T06:41:42.367Z,100.00
2022-09-06T06:44:29.839Z,100.00
2022-09-06T06:47:02.184Z,100.00
2022-09-06T06:49:31.298Z,100.00
2022-09-06T06:52:00.208Z,100.00
2022-09-06T06:54:29.980Z,100.00
2022-09-06T06:56:58.800Z,100.00
2022-09-06T06:59:27.692Z,100.00
2022-09-06T07:01:58.952Z,100.00
2022-09-06T07:04:27.884Z,100.00
2022-09-06T07:12:36.115Z,100.00
2022-09-06T07:15:05.681Z,100.00
2022-09-06T07:17:35.856Z,100.00
2022-09-06T07:22:41.782Z,100.00
2022-09-06T07:25:15.312Z,100.00
2022-09-06T07:27:48.088Z,100.00
2022-09-06T07:30:18.468Z,100.00
2022-09-06T07:32:48.626Z,100.00
2022-09-06T07:35:17.644Z,100.00
2022-09-06T07:37:54.183Z,100.00
2022-09-06T07:40:22.954Z,100.00
2022-09-06T07:42:51.765Z,100.00
2022-09-06T07:45:20.921Z,100.00
2022-09-06T07:50:48.898Z,100.00
2022-09-06T07:53:27.692Z,100.00
2022-09-06T07:56:00.829Z,100.00
2022-09-06T07:58:30.595Z,100.00
2022-09-06T08:01:20.675Z,100.00
2022-09-06T08:03:50.913Z,100.00
2022-09-06T08:06:20.074Z,100.00
2022-09-06T08:11:26.193Z,100.00
2022-09-06T08:13:56.409Z,100.00
2022-09-06T08:16:28.013Z,100.00
2022-09-06T08:19:00.007Z,100.00
2022-09-06T08:21:34.284Z,100.00
2022-09-06T08:24:04.994Z,100.00
2022-09-06T08:26:36.549Z,100.00
2022-09-06T08:29:07.899Z,100.00
2022-09-06T08:31:39.032Z,99.38
2022-09-06T08:34:09.985Z,99.89
2022-09-06T08:36:39.235Z,100.00
2022-09-06T08:39:10.559Z,100.00
2022-09-06T08:41:49.866Z,100.00
2022-09-06T08:47:12.917Z,100.00
2022-09-06T08:49:45.114Z,100.00
2022-09-06T08:53:06.069Z,98.72
2022-09-06T08:55:40.852Z,95.73
2022-09-06T08:58:25.051Z,95.61
2022-09-06T09:00:58.917Z,94.50
2022-09-06T09:03:33.651Z,93.60
2022-09-06T09:06:05.737Z,94.40
2022-09-06T09:08:43.202Z,95.92
2022-09-06T09:11:17.677Z,100.00
2022-09-06T09:13:56.095Z,93.42
2022-09-06T09:16:25.364Z,93.62
2022-09-06T09:18:57.390Z,91.32
2022-09-06T09:21:30.881Z,91.56
2022-09-06T09:24:03.484Z,90.50
2022-09-06T09:26:38.661Z,91.83
2022-09-06T09:29:10.531Z,89.96
2022-09-06T09:31:41.302Z,90.12
2022-09-06T09:34:14.153Z,89.89
2022-09-06T09:39:37.730Z,89.77
2022-09-06T09:42:07.102Z,90.04
2022-09-06T09:44:37.138Z,90.30
2022-09-06T09:47:25.490Z,91.17
2022-09-06T09:49:54.538Z,86.35
2022-09-06T09:52:29.511Z,91.44
2022-09-06T09:55:01.627Z,88.17
2022-09-06T09:57:45.627Z,85.84
2022-09-06T10:00:15.923Z,85.01
2022-09-06T10:02:45.148Z,83.61
2022-09-06T10:05:22.125Z,86.74
2022-09-06T10:07:55.915Z,85.72
2022-09-06T10:10:27.297Z,85.01
2022-09-06T10:13:09.420Z,84.39
2022-09-06T10:15:40.622Z,83.59
2022-09-06T10:18:19.064Z,84.64
2022-09-06T10:20:55.334Z,81.23
2022-09-06T10:26:33.920Z,80.11
2022-09-06T10:29:07.051Z,79.45
2022-09-06T10:32:03.226Z,81.46
2022-09-06T10:35:05.087Z,81.09
2022-09-06T10:37:50.356Z,75.50
2022-09-06T10:40:31.922Z,78.19
2022-09-06T10:43:02.261Z,71.00
2022-09-06T10:45:44.153Z,74.23
2022-09-06T10:48:21.773Z,69.11
2022-09-06T10:50:55.819Z,71.89
2022-09-06T10:53:44.661Z,64.95
2022-09-06T10:56:19.844Z,63.61
2022-09-06T11:01:46.503Z,69.17
2022-09-06T11:04:24.749Z,60.76
2022-09-06T11:06:58.999Z,60.81
2022-09-06T11:09:33.971Z,59.00
2022-09-06T11:12:11.432Z,57.72
2022-09-06T11:14:42.128Z,59.62
2022-09-06T11:17:19.629Z,67.06
2022-09-06T11:19:53.031Z,61.61
2022-09-06T11:22:39.236Z,63.00
2022-09-06T11:25:44.550Z,67.27
2022-09-06T11:28:18.920Z,66.37
2022-09-06T11:30:50.622Z,63.80
2022-09-06T11:33:26.511Z,64.38
2022-09-06T11:36:16.226Z,62.67
2022-09-06T11:38:55.575Z,64.21
2022-09-06T11:41:31.554Z,61.52
2022-09-06T11:44:02.539Z,65.66
2022-09-06T11:47:00.240Z,60.14
2022-09-06T11:49:39.404Z,55.42
2022-09-06T11:52:41.553Z,58.74
2022-09-06T11:55:13.912Z,59.01
2022-09-06T11:57:44.118Z,58.73
2022-09-06T12:00:24.316Z,59.51
2022-09-06T12:02:53.887Z,57.19
2022-09-06T12:05:29.477Z,66.75
2022-09-06T12:08:24.434Z,67.46
2022-09-06T12:11:00.428Z,67.64
2022-09-06T12:13:57.320Z,69.01
2022-09-06T12:17:07.844Z,67.01
2022-09-06T12:19:46.017Z,64.62
2022-09-06T12:23:02.313Z,61.32
2022-09-06T12:25:59.009Z,62.27
2022-09-06T12:28:48.665Z,60.87
2022-09-06T12:31:35.877Z,61.55
2022-09-06T12:34:10.446Z,61.71
2022-09-06T12:36:49.759Z,61.49
2022-09-06T12:39:21.432Z,58.81
2022-09-06T12:41:52.793Z,56.02
2022-09-06T12:44:30.527Z,59.69
2022-09-06T12:47:06.082Z,58.99
2022-09-06T12:49:35.962Z,57.09
2022-09-06T12:52:10.013Z,59.68
2022-09-06T12:54:47.283Z,63.82
2022-09-06T12:57:20.986Z,67.20
2022-09-06T12:59:55.107Z,67.24
2022-09-06T13:02:33.434Z,67.28
2022-09-06T13:05:06.824Z,67.75
2022-09-06T13:07:40.609Z,71.85
2022-09-06T13:10:10.260Z,72.57
2022-09-06T13:12:45.129Z,73.84
2022-09-06T13:15:19.678Z,76.55
2022-09-06T13:17:50.751Z,76.30
2022-09-06T13:20:26.805Z,75.94
2022-09-06T13:23:09.603Z,78.52
2022-09-06T13:25:48.910Z,77.89
2022-09-06T13:28:26.768Z,79.52
2022-09-06T13:31:11.253Z,81.08
2022-09-06T13:33:43.292Z,82.22
2022-09-06T13:36:31.245Z,83.87
2022-09-06T13:39:03.806Z,85.61
2022-09-06T13:41:43.082Z,86.02
2022-09-06T13:44:28.796Z,87.36
2022-09-06T13:46:58.275Z,88.39
2022-09-06T13:49:32.215Z,88.51
2022-09-06T13:52:03.377Z,89.45
2022-09-06T13:54:33.877Z,89.62
2022-09-06T13:57:03.140Z,90.09
2022-09-06T13:59:31.945Z,91.93
2022-09-06T14:02:07.282Z,93.28
2022-09-06T14:04:38.185Z,91.83
2022-09-06T14:07:09.155Z,88.71
2022-09-06T14:09:38.123Z,89.45
2022-09-06T14:12:34.953Z,89.98
2022-09-06T14:15:04.168Z,91.03
2022-09-06T14:17:34.233Z,92.20
2022-09-06T14:20:05.369Z,94.05
2022-09-06T14:22:34.183Z,91.76
2022-09-06T14:25:03.338Z,92.27
2022-09-06T14:27:33.095Z,93.08
2022-09-06T14:30:01.840Z,94.36
2022-09-06T14:32:32.236Z,95.31
2022-09-06T14:35:02.290Z,96.40
2022-09-06T14:37:33.805Z,96.50
2022-09-06T14:40:28.015Z,97.66
2022-09-06T14:42:58.575Z,98.90
2022-09-06T14:45:27.688Z,97.42
2022-09-06T14:47:56.733Z,97.04
2022-09-06T14:50:25.668Z,98.62
2022-09-06T14:52:55.982Z,98.48
2022-09-06T14:55:25.009Z,99.24
2022-09-06T14:57:54.655Z,98.48
2022-09-06T15:00:24.102Z,99.30
2022-09-06T15:02:53.100Z,98.69
2022-09-06T15:05:22.114Z,99.20
2022-09-06T15:07:50.969Z,98.81
2022-09-06T15:10:21.409Z,99.48
2022-09-06T15:12:50.327Z,99.09
2022-09-06T15:15:19.293Z,97.17
2022-09-06T15:17:48.328Z,97.45
2022-09-06T15:20:17.257Z,96.51
2022-09-06T15:22:46.177Z,97.21
2022-09-06T15:25:15.103Z,97.48
2022-09-06T15:27:45.569Z,97.86
2022-09-06T15:30:14.909Z,99.11
2022-09-06T15:32:44.992Z,97.62
2022-09-06T15:35:14.006Z,100.00
2022-09-06T15:37:42.848Z,100.00
2022-09-06T15:40:13.363Z,100.00
2022-09-06T15:42:42.751Z,100.00
2022-09-06T15:45:13.612Z,100.00
2022-09-06T15:47:43.405Z,100.00
2022-09-06T15:50:12.577Z,100.00
2022-09-06T15:52:41.571Z,100.00
2022-09-06T15:55:27.893Z,100.00
2022-09-06T15:57:56.692Z,100.00
2022-09-06T16:00:27.297Z,100.00
2022-09-06T16:02:57.345Z,100.00
2022-09-06T16:08:15.517Z,100.00
2022-09-06T16:10:44.457Z,100.00
2022-09-06T16:13:13.464Z,100.00
2022-09-06T16:15:43.636Z,100.00
2022-09-06T16:18:12.843Z,100.00
2022-09-06T16:20:41.778Z,100.00
2022-09-06T16:23:10.896Z,100.00
2022-09-06T16:25:39.713Z,100.00
2022-09-06T16:28:08.767Z,100.00
2022-09-06T16:30:44.465Z,100.00
2022-09-06T16:33:14.317Z,100.00
2022-09-06T16:35:43.898Z,100.00
2022-09-06T16:38:12.913Z,100.00
2022-09-06T16:40:46.513Z,100.00
2022-09-06T16:43:15.447Z,100.00
2022-09-06T16:45:57.103Z,100.00
2022-09-06T16:48:26.788Z,100.00
2022-09-06T16:50:55.818Z,100.00
2022-09-06T16:53:25.666Z,100.00
2022-09-06T16:55:54.532Z,100.00
2022-09-06T16:58:23.607Z,100.00
2022-09-06T17:00:54.274Z,100.00
2022-09-06T17:03:23.431Z,100.00
2022-09-06T17:05:52.647Z,100.00
2022-09-06T17:08:21.883Z,100.00
2022-09-06T17:10:50.719Z,100.00
2022-09-06T17:13:19.643Z,100.00
2022-09-06T17:16:13.446Z,100.00
2022-09-06T17:18:42.307Z,100.00
2022-09-06T17:21:11.721Z,100.00
2022-09-06T17:23:41.345Z,100.00
2022-09-06T17:26:10.326Z,100.00
2022-09-06T17:28:40.769Z,100.00
2022-09-06T17:31:11.314Z,100.00
2022-09-06T17:33:40.834Z,100.00
2022-09-06T17:36:11.883Z,100.00
2022-09-06T17:38:41.498Z,100.00
2022-09-06T17:41:15.769Z,100.00
2022-09-06T17:43:44.827Z,100.00
2022-09-06T17:46:15.329Z,100.00
2022-09-06T17:48:45.015Z,100.00
2022-09-06T17:51:14.704Z,100.00
2022-09-06T17:53:46.597Z,100.00
2022-09-06T17:56:17.182Z,100.00
2022-09-06T17:58:54.889Z,100.00
2022-09-06T18:01:29.678Z,100.00
2022-09-06T18:04:00.011Z,100.00
2022-09-06T18:06:31.071Z,100.00
2022-09-06T18:09:07.531Z,100.00
2022-09-06T18:11:36.744Z,100.00
2022-09-06T18:14:07.901Z,100.00
2022-09-06T18:16:40.540Z,100.00
2022-09-06T18:19:10.516Z,100.00
2022-09-06T18:21:41.145Z,100.00
2022-09-06T18:24:11.225Z,100.00
2022-09-06T18:26:40.299Z,100.00
2022-09-06T18:29:12.528Z,100.00
2022-09-06T18:31:43.224Z,100.00
2022-09-06T18:34:12.941Z,100.00
2022-09-06T18:36:42.697Z,100.00
2022-09-06T18:39:13.307Z,100.00
2022-09-06T18:41:59.846Z,100.00
2022-09-06T18:44:32.625Z,100.00
2022-09-06T18:47:05.975Z,100.00
2022-09-06T18:49:38.553Z,100.00
2022-09-06T18:52:10.021Z,100.00
2022-09-06T18:54:39.249Z,100.00
2022-09-06T18:57:08.515Z,100.00
2022-09-06T18:59:37.830Z,100.00
2022-09-06T19:02:08.641Z,100.00
2022-09-06T19:04:37.942Z,100.00
2022-09-06T19:07:07.468Z,100.00
2022-09-06T19:09:36.849Z,100.00
2022-09-06T19:12:06.519Z,100.00
2022-09-06T19:14:35.929Z,100.00
2022-09-06T19:17:05.916Z,100.00
2022-09-06T19:19:36.570Z,100.00
2022-09-06T19:22:05.886Z,100.00
2022-09-06T19:24:35.181Z,100.00
2022-09-06T19:27:04.306Z,100.00
2022-09-06T19:29:33.587Z,100.00
2022-09-06T19:32:03.231Z,100.00
2022-09-06T19:34:32.388Z,100.00
2022-09-06T19:37:03.188Z,100.00
2022-09-06T19:39:36.760Z,100.00
2022-09-06T19:42:06.347Z,100.00
2022-09-06T19:44:35.265Z,100.00
2022-09-06T19:47:04.759Z,100.00
2022-09-06T19:49:33.721Z,100.00
2022-09-06T19:52:09.978Z,100.00
2022-09-06T19:54:39.343Z,100.00
2022-09-06T19:57:08.337Z,100.00
2022-09-06T19:59:37.285Z,100.00
2022-09-06T20:02:06.299Z,100.00
2022-09-06T20:04:35.278Z,100.00
2022-09-06T20:07:05.677Z,100.00
2022-09-06T20:09:34.576Z,100.00
2022-09-06T20:12:03.694Z,100.00
2022-09-06T20:14:32.518Z,100.00
2022-09-06T20:17:22.707Z,100.00
2022-09-06T20:19:50.511Z,100.00
2022-09-06T20:22:20.947Z,100.00
2022-09-06T20:24:49.774Z,100.00
2022-09-06T20:27:18.652Z,100.00
2022-09-06T20:29:48.005Z,100.00
2022-09-06T20:32:16.811Z,100.00
2022-09-06T20:34:45.664Z,100.00
2022-09-06T20:37:14.607Z,100.00
2022-09-06T20:39:45.001Z,100.00
2022-09-06T20:42:13.828Z,100.00
2022-09-06T20:44:42.669Z,100.00
2022-09-06T20:47:11.738Z,100.00
2022-09-06T20:49:40.743Z,100.00
2022-09-06T20:52:09.643Z,100.00
2022-09-06T20:54:38.568Z,100.00
2022-09-06T20:57:08.839Z,100.00
2022-09-06T20:59:37.773Z,100.00
2022-09-06T21:02:06.871Z,100.00
2022-09-06T21:04:35.851Z,100.00
2022-09-06T21:07:04.984Z,100.00
2022-09-06T21:09:33.795Z,100.00
2022-09-06T21:12:03.582Z,100.00
2022-09-06T21:14:33.913Z,100.00
2022-09-06T21:17:02.744Z,100.00
2022-09-06T21:19:31.646Z,100.00
2022-09-06T21:22:00.379Z,100.00
2022-09-06T21:24:29.297Z,100.00
2022-09-06T21:26:58.126Z,100.00
2022-09-06T21:29:27.044Z,100.00
2022-09-06T21:31:57.362Z,100.00
2022-09-06T21:34:26.644Z,100.00
2022-09-06T21:36:55.517Z,100.00
2022-09-06T21:39:24.551Z,100.00
2022-09-06T21:41:53.540Z,100.00
2022-09-06T21:44:22.508Z,100.00
2022-09-06T21:46:51.344Z,100.00
2022-09-06T21:49:21.674Z,100.00
2022-09-06T21:51:50.493Z,100.00
2022-09-06T21:54:19.378Z,100.00
2022-09-06T21:56:48.480Z,100.00
2022-09-06T21:59:17.341Z,100.00
2022-09-06T22:01:46.653Z,100.00
2022-09-06T22:04:15.654Z,100.00
2022-09-06T22:06:46.443Z,100.00
2022-09-06T22:09:15.425Z,100.00
2022-09-06T22:11:45.858Z,100.00
2022-09-06T22:14:15.847Z,100.00
2022-09-06T22:16:45.013Z,100.00
2022-09-06T22:19:15.327Z,100.00
2022-09-06T22:21:45.717Z,100.00
2022-09-06T22:24:17.620Z,100.00
2022-09-06T22:26:46.540Z,100.00
2022-09-06T22:29:16.750Z,100.00
2022-09-06T22:31:46.375Z,100.00
2022-09-06T22:34:15.366Z,100.00
2022-09-06T22:36:45.682Z,100.00
2022-09-06T22:39:14.454Z,100.00
2022-09-06T22:41:43.411Z,100.00
2022-09-06T22:44:12.349Z,100.00
2022-09-06T22:46:41.378Z,100.00
2022-09-06T22:49:10.369Z,100.00
2022-09-06T22:51:39.276Z,100.00
2022-09-06T22:54:09.955Z,100.00
2022-09-06T22:56:38.870Z,100.00
2022-09-06T22:59:07.998Z,100.00
2022-09-06T23:01:39.432Z,100.00
2022-09-06T23:04:08.614Z,100.00
2022-09-06T23:06:38.477Z,100.00
2022-09-06T23:09:09.012Z,100.00
2022-09-06T23:11:38.089Z,100.00
2022-09-06T23:14:06.999Z,100.00
2022-09-06T23:16:35.983Z,100.00
2022-09-06T23:19:04.998Z,100.00
2022-09-06T23:21:34.017Z,100.00
2022-09-06T23:24:03.276Z,100.00
2022-09-06T23:26:34.328Z,100.00
2022-09-06T23:29:03.244Z,100.00
2022-09-06T23:31:32.854Z,100.00
2022-09-06T23:34:02.730Z,100.00
2022-09-06T23:36:32.891Z,100.00
2022-09-06T23:39:02.858Z,100.00
2022-09-06T23:41:33.169Z,100.00
2022-09-06T23:44:02.261Z,100.00
2022-09-06T23:46:31.469Z,100.00
2022-09-06T23:49:00.444Z,100.00
2022-09-06T23:51:29.249Z,100.00
2022-09-06T23:53:58.522Z,100.00
2022-09-06T23:56:27.361Z,100.00
2022-09-06T23:58:57.647Z,100.00
